Terminal Aerodrome Forecast
Issued by NWS Wilmington, OH

Current Version | Previous Version | Graphics & Text | Print | Product List | Glossary Off
Versions: 1 2 3 4 5 6 7 8 9 10 11 12 13 14 15 16 17 18 19

605
FTUS41 KILN 301730
TAFDAY
TAF
KDAY 301730Z 3018/3118 32008KT P6SM FEW060
     FM310000 31004KT P6SM SKC
     FM311400 04005KT P6SM FEW070=

USA.gov is the U.S. government's official web portal to all federal, state and local government web resources and services.